Time;durP1;ratioP1;P1;durP2;ratioP2;P2;SDS_P1;SDS_P2;PMS_P1;PMS_P2;Temp;Humidity;BMP_temperature;BMP_pressure;BME280_temperature;BME280_humidity;BME280_pressure;Samples;Min_cycle;Max_cycle;Signal;HPM_P1;HPM_P2
2022/03/05 00:03:00;;;;;;;25.33;11.87;;;0.20;99.90;;;;;;10214566;29;20212;-78
2022/03/05 00:08:22;;;;;;;20.30;9.30;;;0.20;99.90;;;;;;10216966;29;20200;-79
2022/03/05 00:13:43;;;;;;;29.27;13.00;;;0.20;99.90;;;;;;10200821;29;20239;-78
2022/03/05 00:19:05;;;;;;;29.93;11.83;;;0.10;99.90;;;;;;10214213;29;20197;-78
2022/03/05 00:24:28;;;;;;;30.40;12.77;;;0.10;99.90;;;;;;10215538;29;20263;-79
2022/03/05 00:29:50;;;;;;;23.97;10.57;;;0.00;99.90;;;;;;10201487;29;20205;-78
2022/03/05 00:35:13;;;;;;;25.47;12.23;;;0.00;99.90;;;;;;10212200;29;20245;-78
2022/03/05 00:40:35;;;;;;;23.90;11.33;;;0.00;99.90;;;;;;10200149;29;20440;-78
2022/03/05 00:45:58;;;;;;;17.53;9.37;;;-0.10;99.90;;;;;;10200818;29;20313;-79
2022/03/05 00:51:19;;;;;;;13.30;7.20;;;-0.20;99.90;;;;;;10186035;29;20217;-79
2022/03/05 00:56:42;;;;;;;14.67;6.30;;;-0.30;99.90;;;;;;10199397;29;20250;-79
2022/03/05 01:02:04;;;;;;;15.73;7.83;;;-0.40;99.90;;;;;;10214543;29;20277;-79
2022/03/05 01:07:26;;;;;;;16.03;8.07;;;-0.50;99.90;;;;;;10214860;29;20200;-79
2022/03/05 01:12:48;;;;;;;21.23;10.40;;;-0.50;99.90;;;;;;10198577;29;20201;-78
2022/03/05 01:18:10;;;;;;;34.77;14.17;;;-0.60;99.90;;;;;;10211796;29;20204;-79
2022/03/05 01:23:32;;;;;;;47.77;16.37;;;-0.60;99.90;;;;;;10213262;29;20244;-79
2022/03/05 01:28:53;;;;;;;46.00;18.60;;;-0.70;99.90;;;;;;10198882;29;20205;-79
2022/03/05 01:34:16;;;;;;;36.03;15.43;;;-0.70;99.90;;;;;;10190381;29;20238;-79
2022/03/05 01:39:38;;;;;;;23.13;11.20;;;-0.80;99.90;;;;;;10158650;29;20401;-79
2022/03/05 01:45:00;;;;;;;20.37;9.27;;;-0.80;99.90;;;;;;10158867;29;20213;-79
2022/03/05 01:50:22;;;;;;;28.33;10.77;;;-0.80;99.90;;;;;;10158447;29;20281;-79
2022/03/05 01:55:45;;;;;;;20.83;9.50;;;-0.70;99.90;;;;;;10171558;29;20291;-79
2022/03/05 02:01:07;;;;;;;24.80;10.23;;;-0.70;99.90;;;;;;10185225;29;20275;-79
2022/03/05 02:06:29;;;;;;;32.13;14.60;;;-0.60;99.90;;;;;;10197866;29;20389;-79
2022/03/05 02:11:51;;;;;;;45.60;21.53;;;-0.50;99.90;;;;;;10209906;29;20411;-79
2022/03/05 02:17:13;;;;;;;84.80;37.60;;;-0.40;99.90;;;;;;10196304;29;20538;-78
2022/03/05 02:22:35;;;;;;;34.43;16.30;;;-0.30;99.90;;;;;;10208999;29;20478;-80
2022/03/05 02:27:58;;;;;;;40.57;19.23;;;-0.20;99.90;;;;;;10209016;29;20201;-79
2022/03/05 02:33:20;;;;;;;87.67;35.37;;;-0.20;99.90;;;;;;10196828;29;20228;-79
2022/03/05 02:38:43;;;;;;;54.83;24.60;;;-0.10;99.90;;;;;;10208709;29;20234;-78
2022/03/05 02:44:05;;;;;;;68.40;27.07;;;-0.10;99.90;;;;;;10211634;29;20282;-79
2022/03/05 02:49:29;;;;;;;48.83;21.47;;;0.00;99.90;;;;;;10211374;29;20210;-79
2022/03/05 02:54:51;;;;;;;36.33;19.33;;;0.00;99.90;;;;;;10210498;29;20235;-78
2022/03/05 03:00:15;;;;;;;15.77;8.77;;;0.00;99.90;;;;;;10196096;29;20228;-79
2022/03/05 03:05:38;;;;;;;25.90;13.90;;;0.00;99.90;;;;;;10197570;29;20208;-78
2022/03/05 03:11:00;;;;;;;23.27;13.50;;;-0.10;99.90;;;;;;10208306;29;20199;-79
2022/03/05 03:16:22;;;;;;;33.30;19.37;;;-0.10;99.90;;;;;;10199131;29;20236;-79
2022/03/05 03:21:44;;;;;;;30.00;16.77;;;-0.10;99.90;;;;;;10188989;29;20526;-79
2022/03/05 03:27:06;;;;;;;25.70;12.27;;;-0.10;99.90;;;;;;10218180;29;20236;-78
2022/03/05 03:32:28;;;;;;;21.97;12.23;;;-0.10;99.90;;;;;;10215270;29;20355;-79
2022/03/05 03:37:51;;;;;;;16.03;10.27;;;-0.20;99.90;;;;;;10218010;29;20235;-78
2022/03/05 03:43:13;;;;;;;27.43;16.13;;;-0.20;99.90;;;;;;10218142;29;20204;-78
2022/03/05 03:48:35;;;;;;;26.80;14.20;;;-0.20;99.90;;;;;;10203320;29;20368;-79
2022/03/05 03:53:57;;;;;;;18.57;10.13;;;-0.20;99.90;;;;;;10217257;29;20537;-79
2022/03/05 03:59:19;;;;;;;16.80;9.40;;;-0.30;99.90;;;;;;10217349;29;20364;-78
2022/03/05 04:04:41;;;;;;;15.67;8.10;;;-0.30;99.90;;;;;;10201482;29;20211;-79
2022/03/05 04:10:05;;;;;;;22.00;12.10;;;-0.40;99.90;;;;;;10202250;29;20216;-79
2022/03/05 04:15:27;;;;;;;35.47;18.13;;;-0.40;99.90;;;;;;10216800;29;20232;-79
2022/03/05 04:20:50;;;;;;;52.77;24.40;;;-0.50;99.90;;;;;;10186848;29;20211;-78
2022/03/05 04:26:12;;;;;;;50.93;23.40;;;-0.60;99.90;;;;;;10187271;29;20237;-78
2022/03/05 04:31:34;;;;;;;42.50;21.00;;;-0.50;99.90;;;;;;10216047;29;20197;-78
2022/03/05 04:36:59;;;;;;;27.40;13.07;;;-0.70;99.90;;;;;;10213614;29;20268;-78
2022/03/05 04:42:21;;;;;;;18.50;9.33;;;-0.60;99.90;;;;;;10186882;29;20201;-78
2022/03/05 04:47:43;;;;;;;15.17;7.53;;;-0.60;99.90;;;;;;10200906;29;20203;-79
2022/03/05 04:53:05;;;;;;;11.83;6.13;;;-0.70;99.90;;;;;;10215253;29;20403;-79
2022/03/05 04:58:27;;;;;;;12.63;6.43;;;-0.60;99.90;;;;;;10215520;29;20398;-78
2022/03/05 05:03:49;;;;;;;13.97;7.33;;;-0.60;99.90;;;;;;10214781;29;20208;-80
2022/03/05 05:09:12;;;;;;;17.30;7.70;;;-0.70;99.90;;;;;;10200395;29;20447;-79
2022/03/05 05:14:34;;;;;;;16.50;7.67;;;-0.60;99.90;;;;;;10214653;29;20233;-79
2022/03/05 05:19:56;;;;;;;17.23;7.63;;;-0.50;99.90;;;;;;10185292;29;20487;-79
2022/03/05 05:25:18;;;;;;;20.00;10.37;;;-0.40;99.90;;;;;;10198289;29;20451;-79
2022/03/05 05:30:40;;;;;;;16.27;8.57;;;-0.30;99.90;;;;;;10211507;29;20252;-79
2022/03/05 05:36:06;;;;;;;10.40;5.23;;;-0.20;99.90;;;;;;10198093;29;20228;-79
2022/03/05 05:41:30;;;;;;;12.00;5.43;;;0.00;99.90;;;;;;10198273;29;20222;-79
2022/03/05 05:46:52;;;;;;;8.33;4.30;;;0.20;99.90;;;;;;10184550;29;20218;-79
2022/03/05 05:52:14;;;;;;;11.57;4.97;;;0.30;99.90;;;;;;10184118;29;20416;-79
2022/03/05 05:57:36;;;;;;;6.20;3.30;;;0.40;99.90;;;;;;10210759;29;20239;-79
2022/03/05 06:02:58;;;;;;;7.50;3.47;;;0.50;99.90;;;;;;10210269;29;20395;-79
2022/03/05 06:08:20;;;;;;;8.23;3.90;;;0.40;99.90;;;;;;10212507;29;20257;-79
2022/03/05 06:13:43;;;;;;;7.90;4.37;;;0.40;99.90;;;;;;10196455;29;20291;-79
2022/03/05 06:19:08;;;;;;;6.47;3.93;;;0.20;99.90;;;;;;10197248;29;20200;-78
2022/03/05 06:24:30;;;;;;;10.23;4.90;;;0.20;99.90;;;;;;10195116;29;20315;-78
2022/03/05 06:29:52;;;;;;;13.47;6.17;;;0.20;99.90;;;;;;10195658;29;20566;-78
2022/03/05 06:35:15;;;;;;;23.77;12.37;;;0.10;99.90;;;;;;10157509;29;20235;-79
2022/03/05 06:40:38;;;;;;;17.93;9.20;;;0.20;99.90;;;;;;10156520;29;20209;-79
2022/03/05 06:46:00;;;;;;;20.50;8.37;;;0.20;99.90;;;;;;10145727;29;20210;-80
2022/03/05 06:51:22;;;;;;;18.20;6.93;;;0.50;99.90;;;;;;10161811;29;20250;-80
2022/03/05 06:56:44;;;;;;;11.40;4.80;;;1.20;99.90;;;;;;10211044;29;20465;-80
2022/03/05 07:02:06;;;;;;;14.77;5.13;;;2.80;99.90;;;;;;10196046;29;20383;-79
2022/03/05 07:07:28;;;;;;;17.27;8.00;;;4.30;99.90;;;;;;10196062;29;20207;-80
2022/03/05 07:12:50;;;;;;;8.30;3.17;;;5.50;99.90;;;;;;10210590;29;20218;-80
2022/03/05 07:18:12;;;;;;;4.60;1.90;;;6.70;91.50;;;;;;10210174;29;20315;-80
2022/03/05 07:23:34;;;;;;;6.50;2.60;;;7.50;66.50;;;;;;10193791;29;20271;-80
2022/03/05 07:28:56;;;;;;;13.30;6.60;;;8.20;56.80;;;;;;10208280;29;20257;-76
2022/03/05 07:34:18;;;;;;;16.63;8.27;;;8.90;49.60;;;;;;10181935;29;20596;-77
2022/03/05 07:39:40;;;;;;;7.55;3.83;;;9.60;42.40;;;;;;10168753;29;20240;-77
2022/03/05 07:45:03;;;;;;;9.02;3.92;;;9.80;38.30;;;;;;10168439;29;20202;-77
2022/03/05 07:50:26;;;;;;;3.22;1.40;;;10.40;35.60;;;;;;10156767;29;20216;-78
2022/03/05 07:55:48;;;;;;;4.82;1.92;;;10.30;33.00;;;;;;10195110;29;20226;-78
2022/03/05 08:01:10;;;;;;;36.38;10.60;;;10.50;32.60;;;;;;10196112;29;20202;-77
2022/03/05 08:06:32;;;;;;;54.85;16.08;;;10.90;31.30;;;;;;10203824;29;20198;-77
2022/03/05 08:11:54;;;;;;;12.73;6.10;;;11.20;29.60;;;;;;10216935;29;20214;-78
2022/03/05 08:17:16;;;;;;;36.22;12.27;;;10.00;30.00;;;;;;10201780;29;20549;-79
2022/03/05 08:22:38;;;;;;;50.57;18.23;;;8.50;33.40;;;;;;10213230;29;20282;-79
2022/03/05 08:27:59;;;;;;;57.20;24.93;;;7.20;39.10;;;;;;10216096;29;20204;-79
2022/03/05 08:33:21;;;;;;;56.17;20.57;;;6.60;47.90;;;;;;10188697;29;20258;-79
2022/03/05 08:38:43;;;;;;;40.97;12.27;;;6.10;49.20;;;;;;10174336;29;20214;-79
2022/03/05 08:44:05;;;;;;;31.03;10.00;;;5.20;57.30;;;;;;10147617;29;20231;-79
2022/03/05 08:49:27;;;;;;;9.37;4.13;;;5.90;61.00;;;;;;10160698;29;20204;-79
2022/03/05 08:54:49;;;;;;;21.15;8.15;;;8.30;42.80;;;;;;10209418;29;20230;-79
2022/03/05 09:00:14;;;;;;;12.50;6.50;;;10.30;34.90;;;;;;10199369;29;20198;-77
2022/03/05 09:05:36;;;;;;;8.88;4.43;;;11.60;30.70;;;;;;10199936;29;20207;-77
2022/03/05 09:10:58;;;;;;;34.05;16.27;;;10.60;29.30;;;;;;10199751;29;20204;-79
2022/03/05 09:16:21;;;;;;;39.00;18.07;;;9.30;30.00;;;;;;10197955;29;20239;-79
2022/03/05 09:21:43;;;;;;;46.10;18.13;;;7.70;33.00;;;;;;10213143;29;20428;-79
2022/03/05 09:27:06;;;;;;;14.60;7.60;;;8.00;34.70;;;;;;10199162;29;20309;-79
2022/03/05 09:32:28;;;;;;;23.83;9.97;;;7.70;35.20;;;;;;10184835;29;20228;-79
2022/03/05 09:37:50;;;;;;;51.77;27.87;;;7.00;36.90;;;;;;10213638;29;20241;-79
2022/03/05 09:43:12;;;;;;;58.08;33.97;;;7.80;39.40;;;;;;10213115;29;20499;-79
2022/03/05 09:48:37;;;;;;;39.05;12.93;;;9.40;35.00;;;;;;10198722;29;20230;-80
2022/03/05 09:53:58;;;;;;;5.85;3.20;;;11.00;30.00;;;;;;10183846;29;20209;-78
2022/03/05 09:59:21;;;;;;;35.45;16.05;;;11.80;28.10;;;;;;10198040;29;20200;-78
2022/03/05 10:04:43;;;;;;;24.60;12.60;;;13.00;26.50;;;;;;10212727;29;20223;-77
2022/03/05 10:10:09;;;;;;;18.85;7.10;;;13.40;24.40;;;;;;10212217;29;20258;-79
2022/03/05 10:15:35;;;;;;;14.70;5.80;;;12.60;23.50;;;;;;10211812;29;20297;-79
2022/03/05 10:20:59;;;;;;;5.63;3.08;;;11.40;25.50;;;;;;10209386;29;20254;-77
2022/03/05 10:26:23;;;;;;;7.55;3.00;;;12.00;25.90;;;;;;10195714;29;20239;-78
2022/03/05 10:32:06;;;;;;;7.75;3.15;;;12.00;25.20;;;;;;10211626;29;20199;-78
2022/03/05 10:37:28;;;;;;;11.38;5.47;;;12.40;24.70;;;;;;10182052;29;20270;-79
2022/03/05 10:42:50;;;;;;;8.60;4.40;;;12.40;24.90;;;;;;10196104;29;20199;-78
2022/03/05 10:48:21;;;;;;;9.90;4.75;;;13.00;24.40;;;;;;10195587;29;20503;-78
2022/03/05 10:53:47;;;;;;;27.55;17.13;;;13.70;23.40;;;;;;10182209;29;20294;-78
2022/03/05 10:59:11;;;;;;;7.85;4.85;;;13.50;22.50;;;;;;10195366;29;20216;-78
2022/03/05 11:04:35;;;;;;;15.00;7.43;;;14.10;21.90;;;;;;10197671;29;20208;-79
2022/03/05 11:09:59;;;;;;;5.35;3.13;;;14.60;21.10;;;;;;10195979;29;20285;-78
2022/03/05 11:15:21;;;;;;;5.55;3.63;;;14.30;21.10;;;;;;10197147;29;20220;-78
2022/03/05 11:20:45;;;;;;;11.50;4.60;;;14.40;21.80;;;;;;10195062;29;20196;-79
2022/03/05 11:26:08;;;;;;;10.15;4.07;;;14.50;21.00;;;;;;10210313;29;20282;-79
2022/03/05 11:31:33;;;;;;;10.43;4.97;;;13.80;20.50;;;;;;10181498;29;20197;-79
2022/03/05 11:36:55;;;;;;;10.60;5.25;;;12.70;21.20;;;;;;10197774;29;20226;-79
2022/03/05 11:42:34;;;;;;;4.63;2.20;;;12.20;22.30;;;;;;10189004;29;20209;-79
2022/03/05 11:48:22;;;;;;;7.90;4.72;;;13.40;20.80;;;;;;10188323;29;20215;-78
2022/03/05 11:53:44;;;;;;;3.55;2.60;;;13.60;20.00;;;;;;10189181;29;20207;-80
2022/03/05 12:00:02;;;;;;;9.35;5.18;;;14.00;19.90;;;;;;10201391;29;20282;-79
2022/03/05 12:05:36;;;;;;;6.80;3.45;;;15.30;19.40;;;;;;10237858;29;20247;-80
2022/03/05 12:11:13;;;;;;;5.70;2.90;;;15.80;18.10;;;;;;10238046;29;20200;-79
2022/03/05 12:16:44;;;;;;;5.05;2.75;;;15.20;18.90;;;;;;10237670;29;20249;-79
2022/03/05 12:22:13;;;;;;;4.28;2.17;;;15.80;18.30;;;;;;10223677;29;20605;-79
2022/03/05 12:27:36;;;;;;;9.10;3.78;;;15.90;18.20;;;;;;10237606;29;20210;-79
2022/03/05 12:33:01;;;;;;;2.53;1.80;;;15.50;18.20;;;;;;10221039;29;20291;-78
2022/03/05 12:38:23;;;;;;;6.57;3.33;;;15.40;17.90;;;;;;10197350;29;20240;-78
2022/03/05 12:43:45;;;;;;;6.63;2.53;;;15.70;18.50;;;;;;10176482;29;20245;-80
2022/03/05 12:49:08;;;;;;;16.80;5.95;;;15.20;18.80;;;;;;10199285;29;20225;-79
2022/03/05 12:54:30;;;;;;;9.55;4.85;;;15.80;18.60;;;;;;10200793;29;20263;-79
2022/03/05 13:00:01;;;;;;;4.30;2.42;;;16.40;18.20;;;;;;10186224;29;20282;-79
2022/03/05 13:05:27;;;;;;;5.68;2.63;;;16.10;17.80;;;;;;10198963;29;20206;-79
2022/03/05 13:10:58;;;;;;;6.25;2.28;;;15.10;18.20;;;;;;10212818;29;20203;-80
2022/03/05 13:16:23;;;;;;;6.25;3.17;;;14.50;18.40;;;;;;10186273;29;20233;-80
2022/03/05 13:21:51;;;;;;;11.75;3.75;;;13.60;19.70;;;;;;10211391;29;20212;-79
2022/03/05 13:27:13;;;;;;;5.72;3.45;;;13.60;20.20;;;;;;10211833;29;20233;-79
2022/03/05 13:32:45;;;;;;;21.38;7.85;;;14.40;19.80;;;;;;10198858;29;20230;-80
2022/03/05 13:38:24;;;;;;;15.57;5.13;;;14.40;19.70;;;;;;10211285;29;20233;-79
2022/03/05 13:43:47;;;;;;;7.00;4.10;;;14.40;19.50;;;;;;10213748;29;20318;-80
2022/03/05 13:49:09;;;;;;;6.45;3.60;;;14.10;19.30;;;;;;10213211;29;20284;-78
2022/03/05 13:54:37;;;;;;;8.30;3.40;;;13.50;19.80;;;;;;10198289;29;20394;-79
2022/03/05 14:00:13;;;;;;;5.07;3.37;;;13.60;20.10;;;;;;10198075;29;20454;-80
2022/03/05 14:05:36;;;;;;;7.63;4.47;;;12.90;19.60;;;;;;10197700;29;20390;-79
2022/03/05 14:10:57;;;;;;;10.97;3.60;;;13.00;20.20;;;;;;10210384;29;20490;-78
2022/03/05 14:16:36;;;;;;;4.90;2.57;;;13.20;19.80;;;;;;10212010;29;20255;-79
2022/03/05 14:22:09;;;;;;;9.77;4.20;;;12.90;19.90;;;;;;10208596;29;20206;-77
2022/03/05 14:27:31;;;;;;;10.00;5.40;;;12.10;20.80;;;;;;10196794;29;20249;-79
2022/03/05 14:32:54;;;;;;;10.70;4.87;;;10.70;22.40;;;;;;10185153;29;20197;-79
2022/03/05 14:38:17;;;;;;;11.37;5.83;;;9.10;24.00;;;;;;10195033;29;20320;-78
2022/03/05 14:43:40;;;;;;;17.70;7.73;;;8.00;25.40;;;;;;10211843;29;20287;-78
2022/03/05 14:49:02;;;;;;;12.67;6.17;;;7.40;27.00;;;;;;10196993;29;20523;-78
2022/03/05 14:54:24;;;;;;;11.57;5.73;;;7.00;27.90;;;;;;10196721;29;20501;-78
2022/03/05 14:59:51;;;;;;;11.17;6.10;;;6.70;28.60;;;;;;10196231;29;20257;-78
2022/03/05 15:05:14;;;;;;;18.20;8.00;;;6.30;29.10;;;;;;10195404;29;20200;-78
2022/03/05 15:10:36;;;;;;;17.20;8.07;;;6.00;30.00;;;;;;10210230;29;20228;-78
2022/03/05 15:15:59;;;;;;;14.60;5.80;;;5.60;31.10;;;;;;10210557;29;20590;-77
2022/03/05 15:21:22;;;;;;;13.13;6.10;;;5.60;32.40;;;;;;10209920;29;20204;-81
2022/03/05 15:26:43;;;;;;;11.47;5.30;;;5.60;32.70;;;;;;10158380;29;20265;-78
2022/03/05 15:32:06;;;;;;;22.50;8.30;;;5.50;34.00;;;;;;10188476;29;20490;-78
2022/03/05 15:37:28;;;;;;;23.70;8.73;;;5.40;35.70;;;;;;10208045;29;20275;-77
2022/03/05 15:42:50;;;;;;;39.23;19.27;;;5.30;39.60;;;;;;10181399;29;20499;-78
2022/03/05 15:48:13;;;;;;;35.83;18.50;;;5.20;43.10;;;;;;10195598;29;20276;-78
2022/03/05 15:53:36;;;;;;;32.33;15.87;;;5.10;47.30;;;;;;10209952;29;20201;-78
2022/03/05 15:58:59;;;;;;;29.33;14.73;;;4.90;51.30;;;;;;10195524;29;20224;-79
2022/03/05 16:04:22;;;;;;;25.17;11.67;;;4.80;54.70;;;;;;10195186;29;20207;-78
2022/03/05 16:09:45;;;;;;;25.77;12.10;;;4.60;63.00;;;;;;10210010;29;20425;-80
2022/03/05 16:15:08;;;;;;;48.70;17.10;;;4.40;73.20;;;;;;10209408;29;20221;-79
2022/03/05 16:20:30;;;;;;;68.17;22.60;;;4.10;80.90;;;;;;10194546;29;20203;-78
2022/03/05 16:25:53;;;;;;;41.07;17.77;;;3.80;88.30;;;;;;10200580;29;20251;-79
2022/03/05 16:31:15;;;;;;;22.00;11.97;;;3.70;91.20;;;;;;10216407;29;20200;-78
2022/03/05 16:36:37;;;;;;;23.40;11.33;;;3.50;93.10;;;;;;10201284;29;20235;-79
2022/03/05 16:41:59;;;;;;;27.90;12.43;;;3.30;95.80;;;;;;10201495;29;20194;-79
2022/03/05 16:47:21;;;;;;;26.07;13.77;;;3.10;97.10;;;;;;10215947;29;20377;-79
2022/03/05 16:52:43;;;;;;;40.47;19.03;;;3.00;98.20;;;;;;10200109;29;20251;-79
2022/03/05 16:58:05;;;;;;;55.50;25.07;;;2.90;99.40;;;;;;10200547;29;20231;-79
2022/03/05 17:03:27;;;;;;;66.40;28.97;;;2.80;99.90;;;;;;10212792;29;20203;-79
2022/03/05 17:08:50;;;;;;;57.00;24.50;;;2.70;99.90;;;;;;10186293;29;20239;-80
2022/03/05 17:14:12;;;;;;;50.17;21.20;;;2.60;99.90;;;;;;10200085;29;20206;-80
2022/03/05 17:19:35;;;;;;;57.00;22.83;;;2.60;99.90;;;;;;10212297;29;20236;-80
2022/03/05 17:24:57;;;;;;;48.93;19.97;;;2.50;99.90;;;;;;10200172;29;20407;-78
2022/03/05 17:30:19;;;;;;;79.17;34.90;;;2.40;99.90;;;;;;10165083;29;20202;-79
2022/03/05 17:35:41;;;;;;;92.00;42.33;;;2.30;99.90;;;;;;10200432;29;20269;-79
2022/03/05 17:41:04;;;;;;;79.53;37.23;;;2.20;99.90;;;;;;10214380;29;20207;-80
2022/03/05 17:46:27;;;;;;;72.77;32.40;;;2.10;99.90;;;;;;10198188;29;20205;-78
2022/03/05 17:51:49;;;;;;;73.47;32.43;;;;;;;;;;10184581;29;20233;-79
2022/03/05 17:57:11;;;;;;;78.23;35.93;;;1.80;99.90;;;;;;10186390;29;20305;-79
2022/03/05 18:02:33;;;;;;;66.40;30.97;;;1.70;99.90;;;;;;10197152;29;20202;-79
2022/03/05 18:07:55;;;;;;;69.67;30.47;;;1.70;99.90;;;;;;10190671;29;20202;-79
2022/03/05 18:13:17;;;;;;;91.80;38.40;;;1.60;99.90;;;;;;10210285;29;20194;-80
2022/03/05 18:18:42;;;;;;;105.93;43.07;;;1.50;99.90;;;;;;10197694;29;20226;-79
2022/03/05 18:24:05;;;;;;;80.93;35.83;;;1.40;99.90;;;;;;10195364;29;20257;-79
2022/03/05 18:29:28;;;;;;;55.27;25.57;;;1.40;99.90;;;;;;10211793;29;20206;-79
2022/03/05 18:34:51;;;;;;;55.40;27.30;;;1.20;99.90;;;;;;10191348;29;20479;-79
2022/03/05 18:40:13;;;;;;;65.33;30.07;;;1.20;99.90;;;;;;10196441;29;20264;-79
2022/03/05 18:45:37;;;;;;;76.77;34.90;;;1.20;99.90;;;;;;10171055;29;20250;-79
2022/03/05 18:51:00;;;;;;;73.13;33.00;;;1.20;99.90;;;;;;10143245;29;20202;-78
2022/03/05 18:56:22;;;;;;;82.93;34.77;;;1.10;99.90;;;;;;10171933;29;20240;-79
2022/03/05 19:01:44;;;;;;;104.97;47.80;;;1.10;99.90;;;;;;10157147;29;20245;-79
2022/03/05 19:07:06;;;;;;;105.87;47.20;;;1.00;99.90;;;;;;10188098;29;20207;-79
2022/03/05 19:12:29;;;;;;;63.33;29.40;;;0.90;99.90;;;;;;10195011;29;20196;-79
2022/03/05 19:17:51;;;;;;;51.13;22.50;;;0.80;99.90;;;;;;10194725;29;20227;-79
2022/03/05 19:23:12;;;;;;;57.23;26.70;;;0.70;99.90;;;;;;10209307;29;20233;-79
2022/03/05 19:28:36;;;;;;;64.00;29.80;;;0.70;99.90;;;;;;10210496;29;20205;-79
2022/03/05 19:33:58;;;;;;;82.50;33.70;;;0.70;99.90;;;;;;10191046;29;20361;-78
2022/03/05 19:39:21;;;;;;;78.50;32.37;;;0.70;99.90;;;;;;10181571;29;20313;-80
2022/03/05 19:44:44;;;;;;;86.83;36.80;;;0.70;99.90;;;;;;10194640;29;20201;-79
2022/03/05 19:50:07;;;;;;;101.17;40.80;;;0.60;99.90;;;;;;10195307;29;20492;-80
2022/03/05 19:55:30;;;;;;;130.27;48.83;;;0.60;99.90;;;;;;10194101;29;20289;-78
2022/03/05 20:00:52;;;;;;;107.47;43.80;;;0.50;99.90;;;;;;10201993;29;20225;-79
2022/03/05 20:06:14;;;;;;;88.47;36.93;;;0.40;99.90;;;;;;10176628;29;20198;-80
2022/03/05 20:11:36;;;;;;;78.43;35.10;;;0.40;99.90;;;;;;10163351;29;20220;-78
2022/03/05 20:17:00;;;;;;;95.90;41.10;;;0.40;99.90;;;;;;10162240;29;20229;-78
2022/03/05 20:22:23;;;;;;;133.77;51.57;;;0.30;99.90;;;;;;10181792;29;20205;-80
2022/03/05 20:27:47;;;;;;;146.43;60.47;;;0.20;99.90;;;;;;10213741;29;20212;-79
2022/03/05 20:33:09;;;;;;;149.43;57.50;;;0.10;99.90;;;;;;10201220;29;20232;-79
2022/03/05 20:38:31;;;;;;;224.73;84.23;;;-0.10;99.90;;;;;;10201386;29;20268;-79
2022/03/05 20:43:53;;;;;;;237.60;89.73;;;-0.20;99.90;;;;;;10200162;29;20614;-79
2022/03/05 20:49:16;;;;;;;255.33;95.80;;;-0.20;99.90;;;;;;10189326;29;20200;-79
2022/03/05 20:54:39;;;;;;;257.37;99.63;;;-0.30;99.90;;;;;;10201125;29;20268;-79
2022/03/05 21:00:01;;;;;;;320.50;121.13;;;-0.40;99.90;;;;;;10186593;29;20235;-79
2022/03/05 21:05:27;;;;;;;288.93;111.50;;;-0.40;99.90;;;;;;10200081;29;20251;-78
2022/03/05 21:10:50;;;;;;;247.37;98.80;;;-0.50;99.90;;;;;;10199406;29;20201;-79
2022/03/05 21:16:13;;;;;;;214.17;84.67;;;-0.60;99.90;;;;;;10214585;29;20236;-79
2022/03/05 21:21:35;;;;;;;200.63;82.53;;;-0.60;99.90;;;;;;10198279;29;20244;-79
2022/03/05 21:26:57;;;;;;;207.77;91.80;;;-0.70;99.90;;;;;;10211693;29;20250;-79
2022/03/05 21:32:19;;;;;;;255.30;108.57;;;-0.70;99.90;;;;;;10211710;29;20204;-79
2022/03/05 21:37:41;;;;;;;305.63;130.37;;;-0.90;99.90;;;;;;10211273;29;20225;-79
2022/03/05 21:43:04;;;;;;;378.60;169.03;;;-0.90;99.90;;;;;;10213421;29;20395;-79
2022/03/05 21:48:27;;;;;;;405.37;181.37;;;-0.90;99.90;;;;;;10198588;29;20287;-78
2022/03/05 21:53:49;;;;;;;345.30;153.33;;;-0.90;99.90;;;;;;10198687;29;20206;-78
2022/03/05 21:59:11;;;;;;;339.27;144.80;;;-0.90;99.90;;;;;;10198389;29;20291;-79
2022/03/05 22:04:33;;;;;;;352.70;141.93;;;-1.00;99.90;;;;;;10197173;29;20200;-79
2022/03/05 22:09:55;;;;;;;338.67;137.87;;;-1.10;99.90;;;;;;10184359;29;20239;-79
2022/03/05 22:15:17;;;;;;;345.43;136.23;;;-1.00;99.90;;;;;;10197766;29;20203;-80
2022/03/05 22:20:40;;;;;;;313.87;130.00;;;-1.10;99.90;;;;;;10211460;29;20208;-78
2022/03/05 22:26:02;;;;;;;327.97;131.77;;;-1.20;99.90;;;;;;10209489;29;20264;-79
2022/03/05 22:31:25;;;;;;;323.27;133.87;;;-1.30;99.90;;;;;;10211789;29;20439;-79
2022/03/05 22:36:51;;;;;;;367.83;144.20;;;-1.30;99.90;;;;;;10196947;29;20526;-79
2022/03/05 22:42:14;;;;;;;353.40;139.90;;;-1.40;99.90;;;;;;10196911;29;20433;-78
2022/03/05 22:47:36;;;;;;;360.40;132.73;;;-1.50;99.90;;;;;;10196817;29;20200;-79
2022/03/05 22:52:58;;;;;;;417.40;139.00;;;-1.50;99.90;;;;;;10211364;29;20375;-79
2022/03/05 22:58:22;;;;;;;404.57;133.20;;;-1.50;99.90;;;;;;10196145;29;20226;-79
2022/03/05 23:09:30;;;;;;;336.57;127.17;;;-1.50;99.90;;;;;;10207256;29;20199;-79
2022/03/05 23:14:53;;;;;;;337.33;129.73;;;-1.60;99.90;;;;;;10194841;29;20525;-79
2022/03/05 23:20:15;;;;;;;356.90;127.87;;;-1.70;99.90;;;;;;10208235;29;20303;-79
2022/03/05 23:25:37;;;;;;;313.07;118.37;;;-1.80;99.90;;;;;;10179655;29;20286;-78
2022/03/05 23:30:59;;;;;;;314.30;114.60;;;-1.80;99.90;;;;;;10210521;29;20196;-79
2022/03/05 23:36:21;;;;;;;316.07;117.57;;;-1.80;99.90;;;;;;10202459;29;20280;-79
2022/03/05 23:41:43;;;;;;;317.30;117.87;;;-1.90;99.90;;;;;;10218237;29;20204;-79
2022/03/05 23:47:06;;;;;;;344.53;115.07;;;-1.90;99.90;;;;;;10218198;29;20204;-79
2022/03/05 23:52:27;;;;;;;321.03;110.63;;;-2.00;99.90;;;;;;10215514;29;20428;-79
2022/03/05 23:57:49;;;;;;;348.67;112.50;;;-2.00;99.90;;;;;;10202873;29;20545;-79
